Time;durP1;ratioP1;P1;durP2;ratioP2;P2;SDS_P1;SDS_P2;PMS_P1;PMS_P2;Temp;Humidity;BMP_temperature;BMP_pressure;BME280_temperature;BME280_humidity;BME280_pressure;Samples;Min_cycle;Max_cycle;Signal;HPM_P1;HPM_P2
2022/01/02 00:00:43;;;;;;;28.40;20.00;;;;;;;9.72;100.00;101704.59;4974561;28;20018;-72
2022/01/02 00:03:35;;;;;;;33.15;20.58;;;;;;;9.95;100.00;101708.13;4975226;28;20105;-72
2022/01/02 00:06:24;;;;;;;27.23;19.35;;;;;;;9.67;100.00;101715.91;4976665;28;20109;-72
2022/01/02 00:09:19;;;;;;;27.65;19.95;;;;;;;9.76;100.00;101715.94;4951550;28;20026;-72
2022/01/02 00:12:12;;;;;;;29.27;20.27;;;;;;;9.91;100.00;101719.47;4965413;28;20058;-72
2022/01/02 00:14:59;;;;;;;31.35;20.70;;;;;;;9.83;100.00;101726.44;4964818;28;20066;-72
2022/01/02 00:17:45;;;;;;;28.23;19.63;;;;;;;10.05;100.00;101727.38;4978410;28;20113;-72
2022/01/02 00:20:32;;;;;;;29.83;20.13;;;;;;;9.55;100.00;101723.72;4978157;28;20035;-73
2022/01/02 00:23:23;;;;;;;25.52;18.77;;;;;;;9.75;100.00;101728.16;4978280;28;20518;-72
2022/01/02 00:26:16;;;;;;;27.25;18.92;;;;;;;10.02;100.00;101727.31;4978466;28;20090;-73
2022/01/02 00:29:04;;;;;;;29.75;20.10;;;;;;;9.87;100.00;101732.53;4977892;28;20027;-72
2022/01/02 00:31:53;;;;;;;28.15;19.88;;;;;;;9.99;100.00;101730.81;4979122;28;20022;-72
2022/01/02 00:34:41;;;;;;;31.77;19.77;;;;;;;9.56;100.00;101743.78;4978743;28;20412;-71
2022/01/02 00:37:27;;;;;;;31.23;20.23;;;;;;;9.90;100.00;101740.41;4977083;28;20393;-73
2022/01/02 00:40:14;;;;;;;29.13;19.90;;;;;;;9.57;100.00;101745.56;4978314;28;20181;-73
2022/01/02 00:43:04;;;;;;;28.25;20.10;;;;;;;9.74;100.00;101747.31;4978511;28;20038;-73
2022/01/02 00:45:52;;;;;;;27.90;19.00;;;;;;;9.67;100.00;101747.31;4977573;28;20474;-73
2022/01/02 00:48:41;;;;;;;27.58;18.77;;;;;;;9.58;100.00;101744.69;4964211;28;20459;-73
2022/01/02 00:51:37;;;;;;;29.42;19.63;;;;;;;9.45;100.00;101759.44;4978283;28;20026;-72
2022/01/02 00:54:27;;;;;;;29.02;19.02;;;;;;;9.52;100.00;101757.72;4964195;28;20049;-72
2022/01/02 00:57:16;;;;;;;27.88;19.75;;;;;;;9.59;100.00;101749.03;4977297;28;20476;-72
2022/01/02 01:00:09;;;;;;;28.98;19.60;;;;;;;9.69;100.00;101749.06;4977594;28;20209;-72
2022/01/02 01:02:58;;;;;;;28.38;19.08;;;;;;;9.39;100.00;101753.34;4977597;28;20447;-72
2022/01/02 01:05:45;;;;;;;28.80;19.52;;;;;;;9.41;100.00;101756.84;4977079;28;20074;-73
2022/01/02 01:08:32;;;;;;;31.52;20.65;;;;;;;9.67;100.00;101744.69;4964047;28;20382;-73
2022/01/02 01:11:18;;;;;;;27.92;19.85;;;;;;;9.73;100.00;101745.59;4963156;28;20067;-72
2022/01/02 01:14:04;;;;;;;27.60;19.15;;;;;;;9.61;100.00;101755.16;4964114;28;20044;-72
2022/01/02 01:16:51;;;;;;;28.55;19.30;;;;;;;9.92;100.00;101736.03;4976925;28;20022;-71
2022/01/02 01:19:36;;;;;;;29.60;20.58;;;;;;;9.69;100.00;101742.97;4963138;28;20039;-72
2022/01/02 01:22:22;;;;;;;28.00;19.40;;;;;;;10.07;100.00;101741.31;4976209;28;20041;-73
2022/01/02 01:25:15;;;;;;;29.70;19.70;;;;;;;9.56;100.00;101746.41;4978040;28;20427;-73
2022/01/02 01:28:02;;;;;;;30.90;20.33;;;;;;;9.70;100.00;101752.56;4977397;28;20027;-72
2022/01/02 01:30:48;;;;;;;28.98;19.67;;;;;;;9.81;100.00;101751.72;4963454;28;20508;-72
2022/01/02 01:33:34;;;;;;;28.73;20.27;;;;;;;9.62;100.00;101752.53;4976820;28;20026;-72
2022/01/02 01:36:19;;;;;;;27.85;19.65;;;;;;;9.26;100.00;101748.94;4976903;28;20026;-73
2022/01/02 01:39:05;;;;;;;30.38;20.80;;;;;;;9.40;100.00;101742.00;4961970;28;20030;-72
2022/01/02 01:41:54;;;;;;;29.92;20.35;;;;;;;9.66;100.00;101737.72;4976957;28;20582;-72
2022/01/02 01:47:34;;;;;;;31.90;20.45;;;;;;;9.57;100.00;101745.56;4977200;28;20027;-72
2022/01/02 01:50:23;;;;;;;26.88;19.05;;;;;;;9.63;100.00;101750.78;4976952;28;20043;-71
2022/01/02 01:53:09;;;;;;;29.10;19.77;;;;;;;9.63;100.00;101740.31;4963351;28;20058;-72
2022/01/02 01:55:56;;;;;;;27.75;19.50;;;;;;;9.71;100.00;101743.84;4976895;28;20030;-72
2022/01/02 01:58:42;;;;;;;31.98;19.55;;;;;;;9.59;100.00;101762.13;4977039;28;20444;-72
2022/01/02 02:01:28;;;;;;;33.10;20.45;;;;;;;9.78;100.00;101759.53;4975668;28;20031;-72
2022/01/02 02:04:15;;;;;;;29.23;19.55;;;;;;;9.59;100.00;101765.63;4976744;28;20527;-72
2022/01/02 02:07:00;;;;;;;32.03;20.70;;;;;;;9.93;100.00;101766.59;4962240;28;20039;-73
2022/01/02 02:10:04;;;;;;;29.20;19.90;;;;;;;9.47;100.00;101783.91;4962595;28;20030;-72
2022/01/02 02:12:52;;;;;;;29.65;19.67;;;;;;;10.01;100.00;101784.03;4976298;28;20023;-72
2022/01/02 02:15:38;;;;;;;27.63;18.77;;;;;;;9.54;100.00;101785.66;4976065;28;20031;-72
2022/01/02 02:18:24;;;;;;;34.10;20.95;;;;;;;9.85;100.00;101777.03;4976922;28;20034;-72
2022/01/02 02:21:10;;;;;;;28.42;19.65;;;;;;;9.92;100.00;101783.13;4975917;28;20034;-73
2022/01/02 02:23:55;;;;;;;28.20;20.10;;;;;;;9.59;100.00;101793.50;4956518;28;20051;-72
2022/01/02 02:26:41;;;;;;;28.48;19.08;;;;;;;10.01;100.00;101791.88;4957047;28;20027;-73
2022/01/02 02:29:27;;;;;;;28.80;19.80;;;;;;;9.61;100.00;101792.66;4955306;28;20045;-72
2022/01/02 02:32:13;;;;;;;27.15;18.70;;;;;;;9.70;100.00;101791.81;4957552;28;20034;-72
2022/01/02 02:34:59;;;;;;;26.55;18.70;;;;;;;9.71;100.00;101796.19;4957676;28;20027;-72
2022/01/02 02:37:45;;;;;;;27.80;20.02;;;;;;;9.87;100.00;101784.88;4943082;29;20375;-72
2022/01/02 02:40:32;;;;;;;28.15;19.15;;;;;;;9.67;100.00;101778.72;4956901;28;20038;-72
2022/01/02 02:43:28;;;;;;;27.77;19.63;;;;;;;9.67;100.00;101783.94;4956974;29;20028;-73
2022/01/02 02:49:18;;;;;;;29.00;19.42;;;;;;;9.35;100.00;101783.84;4957320;28;20055;-72
2022/01/02 02:52:11;;;;;;;31.38;20.48;;;;;;;9.50;100.00;101798.72;4956239;29;20054;-73
2022/01/02 02:54:57;;;;;;;28.30;20.30;;;;;;;9.36;100.00;101793.44;4955829;29;20023;-72
2022/01/02 02:57:42;;;;;;;28.05;19.60;;;;;;;9.57;100.00;101803.97;4956173;29;20042;-72
2022/01/02 03:00:28;;;;;;;27.83;19.58;;;;;;;9.62;100.00;101815.31;4956734;29;20050;-71
2022/01/02 03:03:14;;;;;;;26.92;19.25;;;;;;;9.90;100.00;101811.06;4956354;29;20356;-72
2022/01/02 03:06:00;;;;;;;27.88;20.02;;;;;;;9.74;100.00;101820.59;4955299;29;20036;-72
2022/01/02 03:08:47;;;;;;;29.17;20.55;;;;;;;9.94;100.00;101820.69;4955663;29;20031;-72
2022/01/02 03:11:33;;;;;;;26.58;19.13;;;;;;;9.77;100.00;101817.16;4956388;29;20039;-72
2022/01/02 03:14:19;;;;;;;29.90;20.35;;;;;;;10.05;100.00;101821.63;4955730;29;20399;-72
2022/01/02 03:17:06;;;;;;;30.48;20.83;;;;;;;9.76;100.00;101818.88;4956057;29;20334;-72
2022/01/02 03:19:51;;;;;;;28.95;20.45;;;;;;;9.69;100.00;101818.88;4956331;29;20106;-73
2022/01/02 03:22:37;;;;;;;30.95;21.08;;;;;;;9.82;100.00;101829.34;4958696;28;20110;-72
2022/01/02 03:25:23;;;;;;;28.73;20.48;;;;;;;9.50;100.00;101827.50;4975645;28;20042;-71
2022/01/02 03:28:09;;;;;;;31.00;20.60;;;;;;;9.33;100.00;101829.16;4975215;28;20031;-72
2022/01/02 03:30:54;;;;;;;28.38;20.50;;;;;;;9.42;100.00;101829.19;4962115;28;20444;-73
2022/01/02 03:33:41;;;;;;;30.73;20.58;;;;;;;9.53;100.00;101822.28;4975366;28;20034;-73
2022/01/02 03:36:26;;;;;;;28.95;21.40;;;;;;;9.55;100.00;101823.16;4975290;28;20090;-72
2022/01/02 03:39:12;;;;;;;31.65;21.70;;;;;;;9.50;100.00;101814.41;4975112;28;20459;-71
2022/01/02 03:41:58;;;;;;;32.15;22.40;;;;;;;9.32;100.00;101820.44;4979180;28;20031;-72
2022/01/02 03:44:44;;;;;;;30.65;21.60;;;;;;;9.00;100.00;101821.97;4978907;28;20022;-72
2022/01/02 03:47:30;;;;;;;32.70;22.52;;;;;;;9.38;100.00;101823.09;4978857;28;20118;-71
2022/01/02 03:50:16;;;;;;;31.60;22.10;;;;;;;9.07;100.00;101829.00;4979481;28;20041;-72
2022/01/02 03:53:03;;;;;;;33.15;22.98;;;;;;;9.35;100.00;101835.25;4979265;28;20474;-72
2022/01/02 03:55:49;;;;;;;35.70;24.88;;;;;;;9.34;100.00;101841.38;4964877;28;20121;-72
2022/01/02 03:58:34;;;;;;;33.22;22.73;;;;;;;9.50;100.00;101851.03;4978591;28;20109;-72
2022/01/02 04:01:20;;;;;;;32.92;23.33;;;;;;;9.47;100.00;101859.75;4978781;28;20118;-72
2022/01/02 04:04:06;;;;;;;37.97;25.23;;;;;;;9.32;100.00;101856.16;4979007;28;20041;-72
2022/01/02 04:06:51;;;;;;;31.73;22.80;;;;;;;9.56;100.00;101870.25;4978462;28;20460;-72
2022/01/02 04:09:37;;;;;;;35.85;24.52;;;;;;;9.69;100.00;101868.59;4978532;28;20455;-73
2022/01/02 04:12:23;;;;;;;35.92;23.35;;;;;;;9.57;100.00;101876.38;4979492;28;20041;-71
2022/01/02 04:15:10;;;;;;;36.42;24.38;;;;;;;9.55;100.00;101876.34;4978546;28;20031;-71
2022/01/02 04:17:56;;;;;;;33.35;23.17;;;;;;;9.39;100.00;101861.44;4964409;28;20035;-71
2022/01/02 04:20:42;;;;;;;33.33;23.80;;;;;;;9.37;100.00;101865.78;4978536;28;20118;-72
2022/01/02 04:23:28;;;;;;;34.70;25.20;;;;;;;9.07;100.00;101870.84;4978322;28;20047;-72
2022/01/02 04:26:13;;;;;;;36.67;24.80;;;;;;;9.52;100.00;101872.84;4977855;28;20057;-72
2022/01/02 04:28:59;;;;;;;34.83;24.10;;;;;;;9.33;100.00;101866.63;4978136;28;20459;-73
2022/01/02 04:31:45;;;;;;;33.97;24.58;;;;;;;9.27;100.00;101870.94;4978101;28;20034;-72
2022/01/02 04:34:31;;;;;;;33.97;24.55;;;;;;;9.04;100.00;101878.66;4978331;28;20037;-71
2022/01/02 04:37:17;;;;;;;36.00;25.17;;;;;;;9.07;100.00;101878.69;4977157;28;20038;-72
2022/01/02 04:40:03;;;;;;;38.03;26.25;;;;;;;9.13;100.00;101877.84;4978356;28;20035;-72
2022/01/02 04:42:49;;;;;;;35.90;25.27;;;;;;;8.98;100.00;101883.84;4978073;28;20030;-72
2022/01/02 04:45:35;;;;;;;36.90;25.73;;;;;;;8.89;100.00;101880.28;4977795;28;20039;-73
2022/01/02 04:48:21;;;;;;;38.33;25.67;;;;;;;8.66;100.00;101876.59;4964083;28;20036;-72
2022/01/02 04:51:06;;;;;;;36.15;26.02;;;;;;;8.96;100.00;101876.88;4977445;28;20042;-72
2022/01/02 04:53:52;;;;;;;36.85;25.58;;;;;;;9.09;100.00;101876.06;4977867;28;20026;-72
2022/01/02 04:56:38;;;;;;;39.63;27.08;;;;;;;9.26;100.00;101874.44;4977214;28;20023;-72
2022/01/02 04:59:24;;;;;;;38.72;26.80;;;;;;;9.39;100.00;101871.91;4977762;28;20027;-72
2022/01/02 05:02:09;;;;;;;34.13;25.33;;;;;;;9.06;100.00;101874.31;4964321;28;20027;-71
2022/01/02 05:04:55;;;;;;;38.00;26.38;;;;;;;9.50;100.00;101871.97;4963680;28;20093;-72
2022/01/02 05:07:41;;;;;;;36.72;26.13;;;;;;;9.48;100.00;101881.53;4977906;28;20066;-72
2022/01/02 05:10:27;;;;;;;36.00;25.77;;;;;;;9.55;100.00;101884.22;4977165;28;20022;-72
2022/01/02 05:13:12;;;;;;;38.65;25.33;;;;;;;9.39;100.00;101887.59;4965119;28;20038;-73
2022/01/02 05:15:58;;;;;;;38.70;25.67;;;;;;;9.04;100.00;101885.59;4977081;28;20027;-72
2022/01/02 05:18:44;;;;;;;39.58;25.88;;;;;;;9.01;100.00;101885.59;4977462;28;20098;-71
2022/01/02 05:21:29;;;;;;;37.50;26.23;;;;;;;8.70;100.00;101900.16;4977102;28;20447;-72
2022/01/02 05:24:15;;;;;;;39.47;26.40;;;;;;;8.54;100.00;101894.78;4976880;28;20127;-72
2022/01/02 05:27:01;;;;;;;38.83;26.30;;;;;;;8.42;100.00;101890.31;4976231;28;20061;-72
2022/01/02 05:29:47;;;;;;;35.95;24.27;;;;;;;8.21;100.00;101903.16;4977385;28;20468;-73
2022/01/02 05:32:33;;;;;;;37.58;25.52;;;;;;;8.11;100.00;101905.59;4963075;28;20038;-72
2022/01/02 05:35:18;;;;;;;33.22;24.45;;;;;;;8.03;100.00;101912.44;4977911;28;20015;-71
2022/01/02 05:38:04;;;;;;;34.88;24.10;;;;;;;8.00;100.00;101917.66;4965038;28;20038;-72
2022/01/02 05:40:52;;;;;;;36.85;25.23;;;;;;;8.24;100.00;101931.03;4963249;28;20019;-73
2022/01/02 05:43:37;;;;;;;36.42;25.85;;;;;;;8.28;100.00;101949.34;4963437;28;20391;-72
2022/01/02 05:46:23;;;;;;;37.25;26.35;;;;;;;8.14;100.00;101955.22;4977038;28;20037;-72
2022/01/02 05:49:11;;;;;;;34.60;25.05;;;;;;;7.86;100.00;101960.94;4976713;28;20035;-72
2022/01/02 05:51:56;;;;;;;36.30;25.98;;;;;;;8.00;100.00;101962.88;4976058;28;20372;-73
2022/01/02 05:54:42;;;;;;;34.83;24.08;;;;;;;8.11;100.00;101965.63;4976973;28;20035;-71
2022/01/02 05:57:28;;;;;;;37.10;25.95;;;;;;;8.12;100.00;101959.56;4976964;28;20026;-72
2022/01/02 06:00:14;;;;;;;37.70;25.85;;;;;;;8.17;100.00;101956.16;4976767;28;20054;-73
2022/01/02 06:02:59;;;;;;;39.83;26.30;;;;;;;8.03;100.00;101949.88;4975774;28;20364;-72
2022/01/02 06:05:46;;;;;;;37.58;25.92;;;;;;;7.76;100.00;101956.47;4962913;28;20066;-73
2022/01/02 06:08:32;;;;;;;36.22;25.63;;;;;;;7.82;100.00;101969.59;4975370;28;20082;-73
2022/01/02 06:11:18;;;;;;;35.13;25.00;;;;;;;7.67;100.00;101972.88;4976755;28;20023;-72
2022/01/02 06:14:04;;;;;;;37.58;26.45;;;;;;;7.81;100.00;101983.50;4976620;28;20027;-72
2022/01/02 06:16:50;;;;;;;35.63;25.45;;;;;;;7.76;100.00;101975.59;4976103;28;20029;-74
2022/01/02 06:19:36;;;;;;;38.20;26.77;;;;;;;8.08;100.00;101969.06;4976427;28;20056;-73
2022/01/02 06:22:21;;;;;;;44.00;29.45;;;;;;;8.40;100.00;101972.13;4975771;28;20030;-72
2022/01/02 06:25:08;;;;;;;39.05;27.85;;;;;;;8.24;100.00;101972.81;4961435;28;20037;-71
2022/01/02 06:27:53;;;;;;;39.15;28.10;;;;;;;8.02;100.00;101981.16;4975878;28;20030;-73
2022/01/02 06:30:39;;;;;;;39.65;27.58;;;;;;;7.77;100.00;101976.50;4975497;28;20031;-72
2022/01/02 06:33:25;;;;;;;40.67;27.15;;;;;;;7.91;100.00;101985.34;4976103;28;20042;-73
2022/01/02 06:36:11;;;;;;;39.97;28.48;;;;;;;8.09;100.00;101998.66;4976556;28;20027;-72
2022/01/02 06:38:56;;;;;;;38.65;27.50;;;;;;;8.01;100.00;101997.69;4975946;28;20034;-72
2022/01/02 06:41:42;;;;;;;40.47;28.15;;;;;;;7.85;100.00;102007.06;4962400;28;20440;-72
2022/01/02 06:44:28;;;;;;;38.13;26.83;;;;;;;7.92;100.00;102018.44;4976166;28;20039;-73
2022/01/02 06:47:13;;;;;;;39.50;26.63;;;;;;;7.69;100.00;102028.56;4961526;28;20456;-72
2022/01/02 06:49:59;;;;;;;35.35;26.33;;;;;;;7.77;100.00;102033.88;4976825;28;20022;-72
2022/01/02 06:52:45;;;;;;;38.53;27.25;;;;;;;7.87;100.00;102047.06;4975613;28;20096;-73
2022/01/02 06:55:31;;;;;;;39.05;27.88;;;;;;;7.91;100.00;102047.97;4975369;28;20019;-73
2022/01/02 06:58:17;;;;;;;40.95;28.13;;;;;;;7.83;100.00;102044.38;4976005;28;20046;-72
2022/01/02 07:01:02;;;;;;;44.63;30.13;;;;;;;8.77;100.00;102050.03;4975834;28;20039;-72
2022/01/02 07:03:48;;;;;;;44.22;29.48;;;;;;;9.03;100.00;102053.78;4975361;28;20027;-72
2022/01/02 07:06:34;;;;;;;44.50;30.23;;;;;;;9.42;100.00;102054.16;4975957;28;20027;-71
2022/01/02 07:09:20;;;;;;;45.05;29.95;;;;;;;9.48;100.00;102046.34;4974323;28;20464;-73
2022/01/02 07:12:06;;;;;;;43.80;29.30;;;;;;;9.50;100.00;102047.25;4975774;28;20054;-72
2022/01/02 07:14:52;;;;;;;38.70;27.58;;;;;;;9.81;100.00;102064.94;4976388;28;20037;-72
2022/01/02 07:17:38;;;;;;;43.08;29.42;;;;;;;9.84;100.00;102068.44;4965892;28;20448;-73
2022/01/02 07:20:24;;;;;;;41.47;27.02;;;;;;;9.91;100.00;102070.25;4979737;28;20396;-73
2022/01/02 07:23:10;;;;;;;42.70;27.77;;;;;;;10.05;100.00;102078.22;4965733;28;20055;-72
2022/01/02 07:25:55;;;;;;;38.85;28.23;;;;;;;10.02;100.00;102078.16;4980290;28;20030;-71
2022/01/02 07:28:41;;;;;;;37.33;27.10;;;;;;;9.82;100.00;102078.00;4979153;28;20271;-73
2022/01/02 07:31:27;;;;;;;39.20;28.27;;;;;;;9.93;100.00;102062.41;4980255;28;20118;-72
2022/01/02 07:34:13;;;;;;;37.35;26.52;;;;;;;10.00;100.00;102072.03;4979057;28;20516;-72
2022/01/02 07:36:58;;;;;;;37.83;27.88;;;;;;;10.11;100.00;102078.25;4979694;28;20440;-72
2022/01/02 07:39:44;;;;;;;38.60;28.17;;;;;;;10.02;100.00;102075.53;4979321;28;20031;-71
2022/01/02 07:42:30;;;;;;;36.25;26.38;;;;;;;9.93;100.00;102085.97;4979089;28;20023;-73
2022/01/02 07:45:17;;;;;;;37.97;26.02;;;;;;;9.81;100.00;102081.50;4966428;28;20031;-73
2022/01/02 07:48:02;;;;;;;33.85;26.27;;;;;;;10.01;100.00;102073.81;4979306;28;20030;-72
2022/01/02 07:50:48;;;;;;;37.60;26.67;;;;;;;9.88;100.00;102072.81;4978277;28;20081;-72
2022/01/02 07:53:34;;;;;;;34.40;25.92;;;;;;;10.14;100.00;102078.28;4979902;28;20507;-70
2022/01/02 07:56:20;;;;;;;34.40;26.40;;;;;;;10.31;100.00;102076.63;4979116;28;20030;-70
2022/01/02 07:59:06;;;;;;;37.90;27.85;;;;;;;10.25;100.00;102079.22;4978456;28;20037;-70
2022/01/02 08:01:52;;;;;;;39.50;27.75;;;;;;;10.44;100.00;102088.03;4979108;28;20030;-71
2022/01/02 08:04:37;;;;;;;34.33;25.42;;;;;;;10.29;100.00;102090.56;4978679;28;20114;-70
2022/01/02 08:07:23;;;;;;;31.77;24.00;;;;;;;10.61;100.00;102089.84;4978903;28;20027;-71
2022/01/02 08:10:09;;;;;;;34.45;24.08;;;;;;;10.63;100.00;102090.75;4979197;28;20037;-70
2022/01/02 08:12:55;;;;;;;35.13;25.23;;;;;;;10.37;100.00;102094.13;4978600;28;20412;-70
2022/01/02 08:15:41;;;;;;;35.05;24.83;;;;;;;10.42;100.00;102098.50;4978330;28;20503;-72
2022/01/02 08:18:27;;;;;;;34.20;24.08;;;;;;;10.78;100.00;102098.69;4978407;28;20038;-70
2022/01/02 08:21:12;;;;;;;32.17;24.42;;;;;;;10.39;100.00;102102.84;4978274;28;20030;-71
2022/01/02 08:23:58;;;;;;;29.55;23.15;;;;;;;10.44;100.00;102088.91;4978231;28;20137;-70
2022/01/02 08:26:46;;;;;;;30.27;23.58;;;;;;;10.97;100.00;102099.59;4963712;28;20042;-69
2022/01/02 08:29:31;;;;;;;31.13;23.90;;;;;;;11.25;100.00;102091.78;4978730;28;20404;-71
2022/01/02 08:32:17;;;;;;;33.58;22.80;;;;;;;11.52;100.00;102089.19;4978968;28;20031;-72
2022/01/02 08:35:03;;;;;;;32.55;23.88;;;;;;;10.65;100.00;102091.59;4976714;28;20030;-71
2022/01/02 08:37:49;;;;;;;32.97;25.02;;;;;;;10.76;100.00;102084.66;4978504;28;20054;-70
2022/01/02 08:40:39;;;;;;;40.40;28.85;;;;;;;10.59;100.00;102091.59;4964230;28;20118;-70
2022/01/02 08:43:25;;;;;;;42.08;30.08;;;;;;;10.64;100.00;102084.63;4978244;28;20035;-71
2022/01/02 08:46:11;;;;;;;45.20;30.73;;;;;;;10.88;100.00;102095.19;4978115;28;20404;-69
2022/01/02 08:48:57;;;;;;;51.85;36.05;;;;;;;10.92;100.00;102085.59;4963945;28;20027;-72
2022/01/02 08:51:43;;;;;;;47.47;33.60;;;;;;;10.78;100.00;102090.81;4977328;28;20018;-70
2022/01/02 08:54:28;;;;;;;41.83;31.17;;;;;;;10.63;100.00;102093.38;4964169;28;20066;-70
2022/01/02 08:57:14;;;;;;;44.42;31.90;;;;;;;10.83;100.00;102094.31;4977426;28;20023;-70
2022/01/02 09:00:00;;;;;;;49.42;33.33;;;;;;;10.74;100.00;102089.03;4977504;28;20030;-71
2022/01/02 09:02:46;;;;;;;40.85;29.45;;;;;;;10.54;100.00;102077.59;4977376;28;20105;-71
2022/01/02 09:05:32;;;;;;;40.78;29.67;;;;;;;11.06;100.00;102074.28;4977502;28;20023;-72
2022/01/02 09:08:18;;;;;;;42.83;30.55;;;;;;;11.04;100.00;102085.63;4963574;28;20030;-71
2022/01/02 09:11:04;;;;;;;38.45;28.65;;;;;;;11.21;100.00;102086.56;4977374;28;20027;-71
2022/01/02 09:13:50;;;;;;;33.85;26.23;;;;;;;11.38;100.00;102083.09;4977499;28;20037;-71
2022/01/02 09:16:36;;;;;;;40.50;29.67;;;;;;;11.87;100.00;102076.97;4976937;28;20022;-71
2022/01/02 09:19:22;;;;;;;40.22;27.85;;;;;;;11.97;100.00;102076.06;4964105;28;20044;-71
2022/01/02 09:22:07;;;;;;;38.63;28.55;;;;;;;11.99;100.00;102069.09;4977078;28;20423;-71
2022/01/02 09:24:53;;;;;;;40.78;29.95;;;;;;;11.24;100.00;102084.78;4977310;28;20093;-70
2022/01/02 09:27:41;;;;;;;42.90;31.35;;;;;;;11.31;100.00;102068.19;4963631;28;20030;-71
2022/01/02 09:30:26;;;;;;;37.35;28.48;;;;;;;11.56;100.00;102062.06;4977239;28;20030;-71
2022/01/02 09:33:12;;;;;;;38.28;29.45;;;;;;;11.55;100.00;102060.34;4977120;28;20486;-71
2022/01/02 09:35:58;;;;;;;43.42;32.08;;;;;;;11.33;100.00;102066.44;4977143;28;20101;-71
2022/01/02 09:38:44;;;;;;;43.78;32.45;;;;;;;11.20;100.00;102064.69;4977403;28;20019;-72
2022/01/02 09:41:30;;;;;;;42.35;32.05;;;;;;;11.73;100.00;102052.47;4963195;28;20041;-70
2022/01/02 09:44:16;;;;;;;36.67;27.35;;;;;;;11.36;100.00;102055.06;4977143;28;20046;-72
2022/01/02 09:47:03;;;;;;;41.08;29.35;;;;;;;11.28;100.00;102046.31;4976398;28;20376;-70
2022/01/02 09:49:49;;;;;;;41.33;30.05;;;;;;;11.51;100.00;102049.81;4976767;28;20031;-70
2022/01/02 09:52:35;;;;;;;33.50;23.27;;;;;;;11.44;100.00;102043.69;4976366;28;20023;-71
2022/01/02 09:55:21;;;;;;;31.40;23.08;;;;;;;12.20;100.00;102050.63;4977552;28;20125;-70
2022/01/02 09:58:11;;;;;;;29.80;23.92;;;;;;;12.20;100.00;102044.50;4976732;28;20105;-71
2022/01/02 10:00:57;;;;;;;30.80;23.25;;;;;;;12.32;100.00;102044.44;4976644;28;20046;-72
2022/01/02 10:03:50;;;;;;;29.02;23.30;;;;;;;12.70;100.00;102050.44;4976340;28;20034;-70
2022/01/02 10:06:42;;;;;;;33.55;24.65;;;;;;;12.55;100.00;102048.75;4976497;28;20062;-70
2022/01/02 10:09:36;;;;;;;33.47;23.95;;;;;;;12.21;100.00;102036.63;4962301;28;20034;-70
2022/01/02 10:12:30;;;;;;;30.35;23.67;;;;;;;12.43;100.00;102045.31;4976236;28;20030;-71
2022/01/02 10:15:24;;;;;;;33.40;24.00;;;;;;;12.03;100.00;102052.44;4962449;28;20056;-71
2022/01/02 10:18:13;;;;;;;33.92;24.40;;;;;;;11.71;100.00;102055.97;4976678;28;20090;-71
2022/01/02 10:21:00;;;;;;;31.38;23.80;;;;;;;11.83;100.00;102043.72;4976178;28;20027;-71
2022/01/02 10:23:46;;;;;;;32.10;23.92;;;;;;;12.22;100.00;102042.75;4976498;28;20055;-70
2022/01/02 10:26:32;;;;;;;35.95;26.35;;;;;;;12.35;100.00;102039.19;4962232;28;20030;-70
2022/01/02 10:29:17;;;;;;;37.17;26.67;;;;;;;12.25;100.00;102033.09;4976062;28;20038;-71
2022/01/02 10:32:21;;;;;;;34.15;24.90;;;;;;;11.80;100.00;102029.69;4962676;28;20022;-71
2022/01/02 10:35:23;;;;;;;33.20;25.67;;;;;;;12.26;100.00;102024.31;4975765;28;20026;-72
2022/01/02 10:38:18;;;;;;;33.10;25.90;;;;;;;11.88;100.00;102020.06;4975641;28;20341;-71
2022/01/02 10:41:06;;;;;;;34.65;25.00;;;;;;;12.02;100.00;102021.78;4960856;28;20329;-71
2022/01/02 10:43:52;;;;;;;35.40;26.70;;;;;;;11.80;100.00;102017.47;4975821;28;20034;-71
2022/01/02 10:46:38;;;;;;;35.95;26.80;;;;;;;12.49;100.00;102019.84;4975252;28;20035;-71
2022/01/02 10:49:24;;;;;;;32.30;24.67;;;;;;;12.48;100.00;102023.38;4976186;28;20034;-71
2022/01/02 10:52:20;;;;;;;30.90;23.92;;;;;;;12.54;100.00;102027.72;4961802;28;20443;-71
2022/01/02 10:55:28;;;;;;;33.42;26.27;;;;;;;12.31;100.00;102012.06;4975852;28;20116;-72
2022/01/02 10:58:15;;;;;;;33.67;25.45;;;;;;;12.97;100.00;102001.19;4976234;28;20037;-70
2022/01/02 11:01:04;;;;;;;36.58;26.27;;;;;;;12.68;100.00;102002.22;4975957;28;20432;-71
2022/01/02 11:03:51;;;;;;;34.92;26.95;;;;;;;12.67;100.00;102001.38;4975486;28;20034;-71
2022/01/02 11:06:39;;;;;;;36.13;26.33;;;;;;;12.28;100.00;101995.41;4975530;28;20034;-70
2022/01/02 11:09:26;;;;;;;34.70;26.25;;;;;;;12.17;100.00;101992.84;4975407;28;20030;-71
2022/01/02 11:12:13;;;;;;;32.20;25.05;;;;;;;12.41;100.00;101989.22;4975518;28;20027;-72
2022/01/02 11:14:59;;;;;;;33.85;26.35;;;;;;;12.64;100.00;101987.34;4961469;28;20023;-71
2022/01/02 11:17:45;;;;;;;38.65;28.60;;;;;;;12.92;100.00;101981.91;4975409;28;20106;-71
2022/01/02 11:20:33;;;;;;;37.53;27.80;;;;;;;13.15;100.00;101974.75;4961444;28;20342;-71
2022/01/02 11:23:38;;;;;;;34.58;26.83;;;;;;;13.46;100.00;101984.13;4975338;28;20069;-71
2022/01/02 11:26:53;;;;;;;36.28;26.58;;;;;;;13.17;100.00;101978.25;4975470;28;20351;-71
2022/01/02 11:29:39;;;;;;;34.17;25.55;;;;;;;13.40;100.00;101976.31;4962003;28;20152;-72
2022/01/02 11:32:27;;;;;;;37.42;28.45;;;;;;;13.67;100.00;101964.63;4975482;28;20023;-71
2022/01/02 11:35:27;;;;;;;36.53;27.58;;;;;;;13.17;100.00;101956.31;4975035;28;20023;-71
2022/01/02 11:38:17;;;;;;;35.72;25.90;;;;;;;13.56;100.00;101959.47;4975252;28;20034;-72
2022/01/02 11:41:02;;;;;;;34.72;26.02;;;;;;;13.85;100.00;101960.03;4961465;28;20033;-71
2022/01/02 11:43:53;;;;;;;39.78;30.00;;;;;;;13.52;100.00;101955.13;4962102;28;20035;-71
2022/01/02 11:46:58;;;;;;;40.78;30.35;;;;;;;13.88;100.00;101960.00;4974675;28;20038;-71
2022/01/02 11:49:44;;;;;;;36.28;27.25;;;;;;;13.90;100.00;101957.31;4962303;28;20046;-71
2022/01/02 11:52:32;;;;;;;34.90;28.27;;;;;;;14.21;100.00;101957.00;4974857;28;20023;-71
2022/01/02 11:55:21;;;;;;;35.13;26.85;;;;;;;14.11;100.00;101951.84;4975549;28;20022;-71
2022/01/02 11:58:10;;;;;;;34.28;27.42;;;;;;;13.87;100.00;101952.13;4961899;28;20467;-71
2022/01/02 12:00:56;;;;;;;35.08;26.98;;;;;;;14.20;100.00;101955.19;4975286;28;20416;-71
2022/01/02 12:03:42;;;;;;;37.45;27.98;;;;;;;13.82;100.00;101952.16;4978067;28;20111;-70
2022/01/02 12:06:34;;;;;;;39.78;28.77;;;;;;;13.53;100.00;101953.34;4978615;28;20030;-71
2022/01/02 12:09:35;;;;;;;36.83;26.58;;;;;;;13.93;100.00;101945.00;4978474;28;20030;-71
2022/01/02 12:12:20;;;;;;;37.10;27.63;;;;;;;14.49;100.00;101944.31;4977869;28;20117;-71
2022/01/02 12:15:06;;;;;;;36.47;28.90;;;;;;;14.51;100.00;101947.81;4978637;28;20397;-72
2022/01/02 12:18:07;;;;;;;36.78;29.13;;;;;;;14.12;100.00;101938.59;4978446;28;20316;-71
2022/01/02 12:20:53;;;;;;;37.38;28.30;;;;;;;14.26;100.00;101941.09;4978460;28;20443;-73
2022/01/02 12:23:45;;;;;;;38.60;29.73;;;;;;;14.12;100.00;101933.34;4978125;28;20058;-73
2022/01/02 12:26:33;;;;;;;35.55;26.88;;;;;;;14.03;100.00;101929.97;4978203;28;20524;-73
2022/01/02 12:29:20;;;;;;;34.15;26.67;;;;;;;13.83;100.00;101924.06;4978969;28;20416;-73
2022/01/02 12:32:07;;;;;;;32.92;26.08;;;;;;;14.07;100.00;101934.31;4978852;28;20448;-72
2022/01/02 12:34:57;;;;;;;32.70;26.15;;;;;;;13.52;100.00;101928.78;4964454;28;20035;-73
2022/01/02 12:37:43;;;;;;;34.35;26.02;;;;;;;13.56;100.00;101925.25;4964781;28;20037;-72
2022/01/02 12:40:36;;;;;;;29.98;24.10;;;;;;;13.69;100.00;101931.22;4977943;28;20440;-73
2022/01/02 12:43:23;;;;;;;29.73;21.73;;;;;;;13.62;100.00;101925.16;4977976;28;20056;-72